sensor_id;sensor_type;location;lat;lon;timestamp;P1;durP1;ratioP1;P2;durP2;ratioP2
61389;SDS011;47260;48.274;19.814;2022-12-18T00:00:39;89.63;;;37.45;;
61389;SDS011;47260;48.274;19.814;2022-12-18T00:02:12;90.85;;;38.38;;
61389;SDS011;47260;48.274;19.814;2022-12-18T00:03:43;93.28;;;38.33;;
61389;SDS011;47260;48.274;19.814;2022-12-18T00:05:18;95.38;;;37.05;;
61389;SDS011;47260;48.274;19.814;2022-12-18T00:06:51;98.88;;;40.10;;
61389;SDS011;47260;48.274;19.814;2022-12-18T00:08:22;89.45;;;36.70;;
61389;SDS011;47260;48.274;19.814;2022-12-18T00:09:55;91.45;;;35.60;;
61389;SDS011;47260;48.274;19.814;2022-12-18T00:11:27;96.28;;;36.30;;
61389;SDS011;47260;48.274;19.814;2022-12-18T00:13:00;93.82;;;36.20;;
61389;SDS011;47260;48.274;19.814;2022-12-18T00:14:32;98.45;;;39.80;;
61389;SDS011;47260;48.274;19.814;2022-12-18T00:16:04;85.07;;;36.38;;
61389;SDS011;47260;48.274;19.814;2022-12-18T00:17:38;87.93;;;37.53;;
61389;SDS011;47260;48.274;19.814;2022-12-18T00:19:09;95.30;;;38.25;;
61389;SDS011;47260;48.274;19.814;2022-12-18T00:20:42;99.57;;;38.13;;
61389;SDS011;47260;48.274;19.814;2022-12-18T00:22:13;99.18;;;38.30;;
61389;SDS011;47260;48.274;19.814;2022-12-18T00:23:48;102.07;;;39.50;;
61389;SDS011;47260;48.274;19.814;2022-12-18T00:25:21;98.85;;;40.25;;
61389;SDS011;47260;48.274;19.814;2022-12-18T00:26:52;106.20;;;40.42;;
61389;SDS011;47260;48.274;19.814;2022-12-18T00:28:24;96.13;;;40.55;;
61389;SDS011;47260;48.274;19.814;2022-12-18T00:29:55;97.82;;;39.28;;
61389;SDS011;47260;48.274;19.814;2022-12-18T00:31:27;108.38;;;40.00;;
61389;SDS011;47260;48.274;19.814;2022-12-18T00:32:58;103.80;;;39.65;;
61389;SDS011;47260;48.274;19.814;2022-12-18T00:34:29;105.53;;;40.45;;
61389;SDS011;47260;48.274;19.814;2022-12-18T00:36:01;99.70;;;38.75;;
61389;SDS011;47260;48.274;19.814;2022-12-18T00:37:32;101.07;;;39.17;;
61389;SDS011;47260;48.274;19.814;2022-12-18T00:39:04;103.88;;;38.60;;
61389;SDS011;47260;48.274;19.814;2022-12-18T00:40:38;86.55;;;37.53;;
61389;SDS011;47260;48.274;19.814;2022-12-18T00:42:09;97.95;;;37.00;;
61389;SDS011;47260;48.274;19.814;2022-12-18T00:43:59;91.47;;;37.95;;
61389;SDS011;47260;48.274;19.814;2022-12-18T00:45:30;91.75;;;35.80;;
61389;SDS011;47260;48.274;19.814;2022-12-18T00:47:02;96.43;;;37.63;;
61389;SDS011;47260;48.274;19.814;2022-12-18T00:48:34;97.20;;;37.15;;
61389;SDS011;47260;48.274;19.814;2022-12-18T00:50:05;96.05;;;37.67;;
61389;SDS011;47260;48.274;19.814;2022-12-18T00:51:37;98.43;;;36.55;;
61389;SDS011;47260;48.274;19.814;2022-12-18T00:53:09;90.70;;;35.42;;
61389;SDS011;47260;48.274;19.814;2022-12-18T00:54:41;93.68;;;37.47;;
61389;SDS011;47260;48.274;19.814;2022-12-18T00:56:14;84.43;;;36.22;;
61389;SDS011;47260;48.274;19.814;2022-12-18T00:57:44;93.45;;;34.20;;
61389;SDS011;47260;48.274;19.814;2022-12-18T00:59:16;85.85;;;35.53;;
61389;SDS011;47260;48.274;19.814;2022-12-18T01:00:49;100.20;;;38.53;;
61389;SDS011;47260;48.274;19.814;2022-12-18T01:02:19;88.85;;;36.50;;
61389;SDS011;47260;48.274;19.814;2022-12-18T01:03:51;98.22;;;37.22;;
61389;SDS011;47260;48.274;19.814;2022-12-18T01:05:24;96.93;;;36.47;;
61389;SDS011;47260;48.274;19.814;2022-12-18T01:06:56;99.55;;;38.38;;
61389;SDS011;47260;48.274;19.814;2022-12-18T01:08:27;91.90;;;36.03;;
61389;SDS011;47260;48.274;19.814;2022-12-18T01:09:59;101.75;;;35.97;;
61389;SDS011;47260;48.274;19.814;2022-12-18T01:11:32;91.22;;;37.63;;
61389;SDS011;47260;48.274;19.814;2022-12-18T01:13:03;92.97;;;37.47;;
61389;SDS011;47260;48.274;19.814;2022-12-18T01:14:35;96.88;;;37.22;;
61389;SDS011;47260;48.274;19.814;2022-12-18T01:16:08;89.72;;;35.47;;
61389;SDS011;47260;48.274;19.814;2022-12-18T01:17:41;94.75;;;36.20;;
61389;SDS011;47260;48.274;19.814;2022-12-18T01:19:13;87.93;;;36.45;;
61389;SDS011;47260;48.274;19.814;2022-12-18T01:20:44;95.20;;;36.97;;
61389;SDS011;47260;48.274;19.814;2022-12-18T01:22:16;87.38;;;34.67;;
61389;SDS011;47260;48.274;19.814;2022-12-18T01:23:50;86.05;;;36.05;;
61389;SDS011;47260;48.274;19.814;2022-12-18T01:25:23;95.63;;;38.40;;
61389;SDS011;47260;48.274;19.814;2022-12-18T01:26:56;86.15;;;34.85;;
61389;SDS011;47260;48.274;19.814;2022-12-18T01:28:28;88.72;;;34.63;;
61389;SDS011;47260;48.274;19.814;2022-12-18T01:29:59;91.05;;;36.72;;
61389;SDS011;47260;48.274;19.814;2022-12-18T01:31:31;97.32;;;36.80;;
61389;SDS011;47260;48.274;19.814;2022-12-18T01:33:06;89.60;;;35.03;;
61389;SDS011;47260;48.274;19.814;2022-12-18T01:34:37;87.43;;;35.40;;
61389;SDS011;47260;48.274;19.814;2022-12-18T01:36:14;93.80;;;35.75;;
61389;SDS011;47260;48.274;19.814;2022-12-18T01:37:46;83.63;;;33.80;;
61389;SDS011;47260;48.274;19.814;2022-12-18T01:39:18;91.63;;;34.53;;
61389;SDS011;47260;48.274;19.814;2022-12-18T01:40:53;86.78;;;34.95;;
61389;SDS011;47260;48.274;19.814;2022-12-18T01:42:28;81.70;;;35.22;;
61389;SDS011;47260;48.274;19.814;2022-12-18T01:44:00;88.03;;;35.58;;
61389;SDS011;47260;48.274;19.814;2022-12-18T01:45:31;80.22;;;33.90;;
61389;SDS011;47260;48.274;19.814;2022-12-18T01:47:03;93.35;;;36.88;;
61389;SDS011;47260;48.274;19.814;2022-12-18T01:48:34;79.60;;;35.78;;
61389;SDS011;47260;48.274;19.814;2022-12-18T01:50:07;86.82;;;35.70;;
61389;SDS011;47260;48.274;19.814;2022-12-18T01:51:44;88.50;;;33.60;;
61389;SDS011;47260;48.274;19.814;2022-12-18T01:53:17;87.63;;;34.00;;
61389;SDS011;47260;48.274;19.814;2022-12-18T01:54:51;86.10;;;35.35;;
61389;SDS011;47260;48.274;19.814;2022-12-18T01:56:23;81.75;;;33.00;;
61389;SDS011;47260;48.274;19.814;2022-12-18T01:57:59;89.65;;;34.63;;
61389;SDS011;47260;48.274;19.814;2022-12-18T01:59:31;79.28;;;33.72;;
61389;SDS011;47260;48.274;19.814;2022-12-18T02:01:04;88.88;;;35.72;;
61389;SDS011;47260;48.274;19.814;2022-12-18T02:02:36;87.30;;;32.10;;
61389;SDS011;47260;48.274;19.814;2022-12-18T02:04:18;84.35;;;35.20;;
61389;SDS011;47260;48.274;19.814;2022-12-18T02:05:53;76.88;;;34.33;;
61389;SDS011;47260;48.274;19.814;2022-12-18T02:07:34;82.75;;;32.67;;
61389;SDS011;47260;48.274;19.814;2022-12-18T02:09:15;82.03;;;33.10;;
61389;SDS011;47260;48.274;19.814;2022-12-18T02:10:54;87.47;;;31.60;;
61389;SDS011;47260;48.274;19.814;2022-12-18T02:12:33;78.03;;;30.70;;
61389;SDS011;47260;48.274;19.814;2022-12-18T02:14:18;87.10;;;34.17;;
61389;SDS011;47260;48.274;19.814;2022-12-18T02:16:00;85.28;;;33.47;;
61389;SDS011;47260;48.274;19.814;2022-12-18T02:17:35;80.15;;;29.58;;
61389;SDS011;47260;48.274;19.814;2022-12-18T02:19:15;80.75;;;30.80;;
61389;SDS011;47260;48.274;19.814;2022-12-18T02:20:59;90.18;;;34.28;;
61389;SDS011;47260;48.274;19.814;2022-12-18T02:22:37;72.53;;;32.33;;
61389;SDS011;47260;48.274;19.814;2022-12-18T02:24:17;85.82;;;32.10;;
61389;SDS011;47260;48.274;19.814;2022-12-18T02:26:06;82.18;;;32.10;;
61389;SDS011;47260;48.274;19.814;2022-12-18T02:27:44;84.20;;;33.13;;
61389;SDS011;47260;48.274;19.814;2022-12-18T02:29:20;85.82;;;32.45;;
61389;SDS011;47260;48.274;19.814;2022-12-18T02:30:58;78.65;;;31.60;;
61389;SDS011;47260;48.274;19.814;2022-12-18T02:32:33;83.55;;;31.27;;
61389;SDS011;47260;48.274;19.814;2022-12-18T02:34:08;86.63;;;33.15;;
61389;SDS011;47260;48.274;19.814;2022-12-18T02:35:42;84.38;;;33.00;;
61389;SDS011;47260;48.274;19.814;2022-12-18T02:37:16;80.05;;;32.00;;
61389;SDS011;47260;48.274;19.814;2022-12-18T02:38:53;84.50;;;32.28;;
61389;SDS011;47260;48.274;19.814;2022-12-18T02:40:27;80.00;;;31.80;;
61389;SDS011;47260;48.274;19.814;2022-12-18T02:42:03;83.63;;;30.95;;
61389;SDS011;47260;48.274;19.814;2022-12-18T02:43:38;79.50;;;30.83;;
61389;SDS011;47260;48.274;19.814;2022-12-18T02:45:11;77.05;;;29.60;;
61389;SDS011;47260;48.274;19.814;2022-12-18T02:46:43;85.05;;;33.83;;
61389;SDS011;47260;48.274;19.814;2022-12-18T02:48:21;79.88;;;31.20;;
61389;SDS011;47260;48.274;19.814;2022-12-18T02:49:58;76.68;;;31.70;;
61389;SDS011;47260;48.274;19.814;2022-12-18T02:51:39;69.38;;;28.02;;
61389;SDS011;47260;48.274;19.814;2022-12-18T02:54:57;77.60;;;27.65;;
61389;SDS011;47260;48.274;19.814;2022-12-18T02:56:40;82.85;;;30.17;;
61389;SDS011;47260;48.274;19.814;2022-12-18T02:58:18;87.22;;;31.70;;
61389;SDS011;47260;48.274;19.814;2022-12-18T03:00:02;73.32;;;28.40;;
61389;SDS011;47260;48.274;19.814;2022-12-18T03:01:38;78.07;;;31.00;;
61389;SDS011;47260;48.274;19.814;2022-12-18T03:03:16;73.18;;;28.98;;
61389;SDS011;47260;48.274;19.814;2022-12-18T03:04:55;76.70;;;30.23;;
61389;SDS011;47260;48.274;19.814;2022-12-18T03:06:32;65.13;;;28.67;;
61389;SDS011;47260;48.274;19.814;2022-12-18T03:08:07;78.95;;;30.88;;
61389;SDS011;47260;48.274;19.814;2022-12-18T03:09:45;74.53;;;30.52;;
61389;SDS011;47260;48.274;19.814;2022-12-18T03:11:18;81.18;;;30.00;;
61389;SDS011;47260;48.274;19.814;2022-12-18T03:13:11;81.38;;;30.05;;
61389;SDS011;47260;48.274;19.814;2022-12-18T03:14:48;82.32;;;29.17;;
61389;SDS011;47260;48.274;19.814;2022-12-18T03:16:23;72.80;;;30.83;;
61389;SDS011;47260;48.274;19.814;2022-12-18T03:17:59;78.68;;;32.08;;
61389;SDS011;47260;48.274;19.814;2022-12-18T03:19:35;87.03;;;30.98;;
61389;SDS011;47260;48.274;19.814;2022-12-18T03:21:09;77.38;;;29.73;;
61389;SDS011;47260;48.274;19.814;2022-12-18T03:22:44;79.68;;;30.65;;
61389;SDS011;47260;48.274;19.814;2022-12-18T03:24:19;88.93;;;32.42;;
61389;SDS011;47260;48.274;19.814;2022-12-18T03:25:54;81.93;;;31.63;;
61389;SDS011;47260;48.274;19.814;2022-12-18T03:27:30;76.95;;;29.85;;
61389;SDS011;47260;48.274;19.814;2022-12-18T03:29:09;74.43;;;30.35;;
61389;SDS011;47260;48.274;19.814;2022-12-18T03:30:47;82.85;;;32.58;;
61389;SDS011;47260;48.274;19.814;2022-12-18T03:32:23;78.75;;;29.88;;
61389;SDS011;47260;48.274;19.814;2022-12-18T03:33:58;80.60;;;31.10;;
61389;SDS011;47260;48.274;19.814;2022-12-18T03:35:42;84.85;;;28.45;;
61389;SDS011;47260;48.274;19.814;2022-12-18T03:37:15;75.80;;;28.38;;
61389;SDS011;47260;48.274;19.814;2022-12-18T03:38:48;75.53;;;28.35;;
61389;SDS011;47260;48.274;19.814;2022-12-18T03:40:20;75.80;;;29.88;;
61389;SDS011;47260;48.274;19.814;2022-12-18T03:41:58;69.00;;;27.45;;
61389;SDS011;47260;48.274;19.814;2022-12-18T03:43:41;74.72;;;27.92;;
61389;SDS011;47260;48.274;19.814;2022-12-18T03:45:19;80.55;;;30.52;;
61389;SDS011;47260;48.274;19.814;2022-12-18T03:46:58;75.63;;;29.13;;
61389;SDS011;47260;48.274;19.814;2022-12-18T03:48:38;74.97;;;29.83;;
61389;SDS011;47260;48.274;19.814;2022-12-18T03:50:16;79.57;;;31.23;;
61389;SDS011;47260;48.274;19.814;2022-12-18T03:51:54;76.70;;;30.20;;
61389;SDS011;47260;48.274;19.814;2022-12-18T03:53:33;72.78;;;28.48;;
61389;SDS011;47260;48.274;19.814;2022-12-18T03:55:09;77.95;;;30.73;;
61389;SDS011;47260;48.274;19.814;2022-12-18T03:56:44;74.55;;;30.10;;
61389;SDS011;47260;48.274;19.814;2022-12-18T03:58:20;77.50;;;29.35;;
61389;SDS011;47260;48.274;19.814;2022-12-18T04:00:03;84.20;;;32.72;;
61389;SDS011;47260;48.274;19.814;2022-12-18T04:01:45;81.25;;;30.42;;
61389;SDS011;47260;48.274;19.814;2022-12-18T04:03:20;83.90;;;30.77;;
61389;SDS011;47260;48.274;19.814;2022-12-18T04:04:53;86.75;;;33.67;;
61389;SDS011;47260;48.274;19.814;2022-12-18T04:06:29;80.63;;;33.45;;
61389;SDS011;47260;48.274;19.814;2022-12-18T04:08:01;74.97;;;30.95;;
61389;SDS011;47260;48.274;19.814;2022-12-18T04:09:38;78.78;;;31.17;;
61389;SDS011;47260;48.274;19.814;2022-12-18T04:11:11;76.30;;;29.52;;
61389;SDS011;47260;48.274;19.814;2022-12-18T04:12:42;73.00;;;29.80;;
61389;SDS011;47260;48.274;19.814;2022-12-18T04:14:15;71.18;;;27.77;;
61389;SDS011;47260;48.274;19.814;2022-12-18T04:15:47;75.32;;;28.48;;
61389;SDS011;47260;48.274;19.814;2022-12-18T04:17:19;76.95;;;28.30;;
61389;SDS011;47260;48.274;19.814;2022-12-18T04:18:53;72.38;;;29.52;;
61389;SDS011;47260;48.274;19.814;2022-12-18T04:20:24;77.20;;;28.35;;
61389;SDS011;47260;48.274;19.814;2022-12-18T04:21:57;73.90;;;28.27;;
61389;SDS011;47260;48.274;19.814;2022-12-18T04:23:29;67.32;;;28.38;;
61389;SDS011;47260;48.274;19.814;2022-12-18T04:25:02;63.50;;;25.80;;
61389;SDS011;47260;48.274;19.814;2022-12-18T04:26:42;61.92;;;25.23;;
61389;SDS011;47260;48.274;19.814;2022-12-18T04:28:18;69.63;;;25.75;;
61389;SDS011;47260;48.274;19.814;2022-12-18T04:29:49;67.45;;;28.00;;
61389;SDS011;47260;48.274;19.814;2022-12-18T04:31:22;65.38;;;25.70;;
61389;SDS011;47260;48.274;19.814;2022-12-18T04:32:53;61.60;;;24.63;;
61389;SDS011;47260;48.274;19.814;2022-12-18T04:34:27;57.05;;;24.38;;
61389;SDS011;47260;48.274;19.814;2022-12-18T04:35:59;54.90;;;23.98;;
61389;SDS011;47260;48.274;19.814;2022-12-18T04:37:31;56.60;;;22.85;;
61389;SDS011;47260;48.274;19.814;2022-12-18T04:39:03;58.00;;;23.55;;
61389;SDS011;47260;48.274;19.814;2022-12-18T04:40:35;60.35;;;25.13;;
61389;SDS011;47260;48.274;19.814;2022-12-18T04:42:11;60.30;;;24.13;;
61389;SDS011;47260;48.274;19.814;2022-12-18T04:43:43;65.07;;;25.38;;
61389;SDS011;47260;48.274;19.814;2022-12-18T04:45:14;56.95;;;23.33;;
61389;SDS011;47260;48.274;19.814;2022-12-18T04:46:46;61.60;;;26.95;;
61389;SDS011;47260;48.274;19.814;2022-12-18T04:48:18;66.13;;;25.92;;
61389;SDS011;47260;48.274;19.814;2022-12-18T04:49:52;62.65;;;25.33;;
61389;SDS011;47260;48.274;19.814;2022-12-18T04:51:23;60.88;;;25.13;;
61389;SDS011;47260;48.274;19.814;2022-12-18T04:52:55;58.28;;;22.42;;
61389;SDS011;47260;48.274;19.814;2022-12-18T04:54:27;55.15;;;21.90;;
61389;SDS011;47260;48.274;19.814;2022-12-18T04:56:06;50.60;;;22.95;;
61389;SDS011;47260;48.274;19.814;2022-12-18T04:57:39;50.92;;;22.02;;
61389;SDS011;47260;48.274;19.814;2022-12-18T04:59:10;51.05;;;20.63;;
61389;SDS011;47260;48.274;19.814;2022-12-18T05:00:41;50.90;;;21.55;;
61389;SDS011;47260;48.274;19.814;2022-12-18T05:02:13;50.83;;;21.30;;
61389;SDS011;47260;48.274;19.814;2022-12-18T05:03:44;51.15;;;21.10;;
61389;SDS011;47260;48.274;19.814;2022-12-18T05:05:17;53.40;;;21.60;;
61389;SDS011;47260;48.274;19.814;2022-12-18T05:06:48;52.00;;;21.63;;
61389;SDS011;47260;48.274;19.814;2022-12-18T05:08:19;52.20;;;21.02;;
61389;SDS011;47260;48.274;19.814;2022-12-18T05:09:51;54.83;;;22.17;;
61389;SDS011;47260;48.274;19.814;2022-12-18T05:11:22;50.50;;;20.85;;
61389;SDS011;47260;48.274;19.814;2022-12-18T05:12:53;53.78;;;20.88;;
61389;SDS011;47260;48.274;19.814;2022-12-18T05:14:30;47.75;;;18.70;;
61389;SDS011;47260;48.274;19.814;2022-12-18T05:16:02;52.05;;;19.75;;
61389;SDS011;47260;48.274;19.814;2022-12-18T05:17:34;45.00;;;19.45;;
61389;SDS011;47260;48.274;19.814;2022-12-18T05:19:05;43.38;;;19.98;;
61389;SDS011;47260;48.274;19.814;2022-12-18T05:20:38;47.05;;;19.80;;
61389;SDS011;47260;48.274;19.814;2022-12-18T05:22:10;47.83;;;19.20;;
61389;SDS011;47260;48.274;19.814;2022-12-18T05:23:42;42.25;;;18.60;;
61389;SDS011;47260;48.274;19.814;2022-12-18T05:25:14;48.05;;;18.63;;
61389;SDS011;47260;48.274;19.814;2022-12-18T05:26:45;44.42;;;19.60;;
61389;SDS011;47260;48.274;19.814;2022-12-18T05:28:16;43.28;;;18.58;;
61389;SDS011;47260;48.274;19.814;2022-12-18T05:29:47;44.05;;;18.88;;
61389;SDS011;47260;48.274;19.814;2022-12-18T05:31:19;45.65;;;19.10;;
61389;SDS011;47260;48.274;19.814;2022-12-18T05:32:50;43.30;;;20.15;;
61389;SDS011;47260;48.274;19.814;2022-12-18T05:34:21;49.13;;;19.00;;
61389;SDS011;47260;48.274;19.814;2022-12-18T05:35:55;49.10;;;19.40;;
61389;SDS011;47260;48.274;19.814;2022-12-18T05:37:27;41.78;;;18.00;;
61389;SDS011;47260;48.274;19.814;2022-12-18T05:38:58;40.90;;;17.27;;
61389;SDS011;47260;48.274;19.814;2022-12-18T05:40:31;41.53;;;17.33;;
61389;SDS011;47260;48.274;19.814;2022-12-18T05:42:01;39.40;;;16.88;;
61389;SDS011;47260;48.274;19.814;2022-12-18T05:43:34;40.22;;;17.80;;
61389;SDS011;47260;48.274;19.814;2022-12-18T05:45:06;43.42;;;17.67;;
61389;SDS011;47260;48.274;19.814;2022-12-18T05:46:38;45.88;;;19.63;;
61389;SDS011;47260;48.274;19.814;2022-12-18T05:48:10;42.60;;;18.80;;
61389;SDS011;47260;48.274;19.814;2022-12-18T05:49:42;45.80;;;18.80;;
61389;SDS011;47260;48.274;19.814;2022-12-18T05:51:15;40.85;;;17.60;;
61389;SDS011;47260;48.274;19.814;2022-12-18T05:52:48;44.47;;;17.67;;
61389;SDS011;47260;48.274;19.814;2022-12-18T05:54:20;41.53;;;17.90;;
61389;SDS011;47260;48.274;19.814;2022-12-18T05:55:51;39.47;;;18.13;;
61389;SDS011;47260;48.274;19.814;2022-12-18T05:57:22;36.80;;;16.85;;
61389;SDS011;47260;48.274;19.814;2022-12-18T05:58:54;45.95;;;19.25;;
61389;SDS011;47260;48.274;19.814;2022-12-18T06:00:26;42.17;;;19.83;;
61389;SDS011;47260;48.274;19.814;2022-12-18T06:01:57;39.67;;;18.20;;
61389;SDS011;47260;48.274;19.814;2022-12-18T06:03:29;41.25;;;17.23;;
61389;SDS011;47260;48.274;19.814;2022-12-18T06:05:00;40.75;;;18.65;;
61389;SDS011;47260;48.274;19.814;2022-12-18T06:06:33;37.63;;;16.98;;
61389;SDS011;47260;48.274;19.814;2022-12-18T06:08:04;41.00;;;16.98;;
61389;SDS011;47260;48.274;19.814;2022-12-18T06:09:36;42.58;;;18.50;;
61389;SDS011;47260;48.274;19.814;2022-12-18T06:11:07;42.05;;;17.13;;
61389;SDS011;47260;48.274;19.814;2022-12-18T06:12:39;36.78;;;16.20;;
61389;SDS011;47260;48.274;19.814;2022-12-18T06:14:11;41.13;;;17.30;;
61389;SDS011;47260;48.274;19.814;2022-12-18T06:15:42;41.28;;;18.20;;
61389;SDS011;47260;48.274;19.814;2022-12-18T06:17:14;37.65;;;17.35;;
61389;SDS011;47260;48.274;19.814;2022-12-18T06:18:46;40.20;;;16.70;;
61389;SDS011;47260;48.274;19.814;2022-12-18T06:20:17;40.83;;;17.17;;
61389;SDS011;47260;48.274;19.814;2022-12-18T06:21:50;41.70;;;19.55;;
61389;SDS011;47260;48.274;19.814;2022-12-18T06:23:21;40.13;;;18.55;;
61389;SDS011;47260;48.274;19.814;2022-12-18T06:24:53;41.25;;;17.13;;
61389;SDS011;47260;48.274;19.814;2022-12-18T06:26:25;40.65;;;17.60;;
61389;SDS011;47260;48.274;19.814;2022-12-18T06:27:57;36.47;;;17.73;;
61389;SDS011;47260;48.274;19.814;2022-12-18T06:29:28;45.85;;;18.85;;
61389;SDS011;47260;48.274;19.814;2022-12-18T06:31:00;44.45;;;18.13;;
61389;SDS011;47260;48.274;19.814;2022-12-18T06:32:33;43.47;;;18.65;;
61389;SDS011;47260;48.274;19.814;2022-12-18T06:34:05;44.22;;;18.75;;
61389;SDS011;47260;48.274;19.814;2022-12-18T06:35:36;46.40;;;20.92;;
61389;SDS011;47260;48.274;19.814;2022-12-18T06:37:09;38.58;;;19.80;;
61389;SDS011;47260;48.274;19.814;2022-12-18T06:38:41;39.17;;;17.08;;
61389;SDS011;47260;48.274;19.814;2022-12-18T06:40:14;45.85;;;18.85;;
61389;SDS011;47260;48.274;19.814;2022-12-18T06:41:45;44.10;;;18.20;;
61389;SDS011;47260;48.274;19.814;2022-12-18T06:43:17;48.33;;;20.42;;
61389;SDS011;47260;48.274;19.814;2022-12-18T06:44:48;42.78;;;18.38;;
61389;SDS011;47260;48.274;19.814;2022-12-18T06:46:19;45.88;;;19.90;;
61389;SDS011;47260;48.274;19.814;2022-12-18T06:47:50;39.45;;;18.30;;
61389;SDS011;47260;48.274;19.814;2022-12-18T06:49:22;40.13;;;19.27;;
61389;SDS011;47260;48.274;19.814;2022-12-18T06:50:54;45.38;;;18.05;;
61389;SDS011;47260;48.274;19.814;2022-12-18T06:52:26;38.97;;;17.80;;
61389;SDS011;47260;48.274;19.814;2022-12-18T06:53:57;44.30;;;18.52;;
61389;SDS011;47260;48.274;19.814;2022-12-18T06:55:29;45.22;;;18.52;;
61389;SDS011;47260;48.274;19.814;2022-12-18T06:57:01;46.28;;;18.63;;
61389;SDS011;47260;48.274;19.814;2022-12-18T06:58:32;43.20;;;18.10;;
61389;SDS011;47260;48.274;19.814;2022-12-18T07:00:04;43.92;;;18.23;;
61389;SDS011;47260;48.274;19.814;2022-12-18T07:01:38;48.42;;;19.15;;
61389;SDS011;47260;48.274;19.814;2022-12-18T07:03:09;37.10;;;17.73;;
61389;SDS011;47260;48.274;19.814;2022-12-18T07:04:40;44.72;;;19.58;;
61389;SDS011;47260;48.274;19.814;2022-12-18T07:06:13;38.55;;;18.20;;
61389;SDS011;47260;48.274;19.814;2022-12-18T07:07:47;43.55;;;18.25;;
61389;SDS011;47260;48.274;19.814;2022-12-18T07:09:19;45.63;;;20.30;;
61389;SDS011;47260;48.274;19.814;2022-12-18T07:10:51;46.95;;;21.55;;
61389;SDS011;47260;48.274;19.814;2022-12-18T07:12:23;105.93;;;64.47;;
61389;SDS011;47260;48.274;19.814;2022-12-18T07:13:54;74.50;;;39.28;;
61389;SDS011;47260;48.274;19.814;2022-12-18T07:15:26;52.53;;;24.90;;
61389;SDS011;47260;48.274;19.814;2022-12-18T07:16:58;55.42;;;23.60;;
61389;SDS011;47260;48.274;19.814;2022-12-18T07:18:29;45.28;;;21.48;;
61389;SDS011;47260;48.274;19.814;2022-12-18T07:20:01;61.08;;;26.10;;
61389;SDS011;47260;48.274;19.814;2022-12-18T07:21:32;56.28;;;26.15;;
61389;SDS011;47260;48.274;19.814;2022-12-18T07:23:05;55.22;;;25.95;;
61389;SDS011;47260;48.274;19.814;2022-12-18T07:24:37;54.25;;;26.38;;
61389;SDS011;47260;48.274;19.814;2022-12-18T07:26:09;54.58;;;25.70;;
61389;SDS011;47260;48.274;19.814;2022-12-18T07:27:42;57.95;;;25.67;;
61389;SDS011;47260;48.274;19.814;2022-12-18T07:29:14;55.67;;;26.60;;
61389;SDS011;47260;48.274;19.814;2022-12-18T07:30:46;62.85;;;27.02;;
61389;SDS011;47260;48.274;19.814;2022-12-18T07:32:17;62.72;;;27.27;;
61389;SDS011;47260;48.274;19.814;2022-12-18T07:33:49;63.13;;;28.15;;
61389;SDS011;47260;48.274;19.814;2022-12-18T07:35:21;61.70;;;26.08;;
61389;SDS011;47260;48.274;19.814;2022-12-18T07:36:52;80.78;;;34.33;;
61389;SDS011;47260;48.274;19.814;2022-12-18T07:38:25;72.10;;;32.97;;
61389;SDS011;47260;48.274;19.814;2022-12-18T07:39:57;73.88;;;33.42;;
61389;SDS011;47260;48.274;19.814;2022-12-18T07:41:29;75.38;;;34.28;;
61389;SDS011;47260;48.274;19.814;2022-12-18T07:43:03;62.75;;;29.45;;
61389;SDS011;47260;48.274;19.814;2022-12-18T07:44:35;63.45;;;28.05;;
61389;SDS011;47260;48.274;19.814;2022-12-18T07:46:07;67.75;;;31.77;;
61389;SDS011;47260;48.274;19.814;2022-12-18T07:47:40;63.58;;;29.60;;
61389;SDS011;47260;48.274;19.814;2022-12-18T07:49:12;56.88;;;28.67;;
61389;SDS011;47260;48.274;19.814;2022-12-18T07:50:43;59.80;;;28.60;;
61389;SDS011;47260;48.274;19.814;2022-12-18T07:52:15;82.00;;;38.88;;
61389;SDS011;47260;48.274;19.814;2022-12-18T07:53:48;77.10;;;39.28;;
61389;SDS011;47260;48.274;19.814;2022-12-18T07:55:20;73.55;;;36.70;;
61389;SDS011;47260;48.274;19.814;2022-12-18T07:56:51;57.53;;;26.10;;
61389;SDS011;47260;48.274;19.814;2022-12-18T07:58:23;61.25;;;26.55;;
61389;SDS011;47260;48.274;19.814;2022-12-18T07:59:55;55.15;;;26.63;;
61389;SDS011;47260;48.274;19.814;2022-12-18T08:01:27;53.55;;;25.58;;
61389;SDS011;47260;48.274;19.814;2022-12-18T08:02:59;55.35;;;26.08;;
61389;SDS011;47260;48.274;19.814;2022-12-18T08:04:30;51.30;;;23.48;;
61389;SDS011;47260;48.274;19.814;2022-12-18T08:06:06;56.65;;;26.15;;
61389;SDS011;47260;48.274;19.814;2022-12-18T08:07:39;61.97;;;29.30;;
61389;SDS011;47260;48.274;19.814;2022-12-18T08:09:12;66.95;;;31.70;;
61389;SDS011;47260;48.274;19.814;2022-12-18T08:10:44;67.65;;;32.88;;
61389;SDS011;47260;48.274;19.814;2022-12-18T08:12:16;73.50;;;33.65;;
61389;SDS011;47260;48.274;19.814;2022-12-18T08:13:47;81.60;;;35.80;;
61389;SDS011;47260;48.274;19.814;2022-12-18T08:15:19;92.45;;;42.10;;
61389;SDS011;47260;48.274;19.814;2022-12-18T08:16:51;106.38;;;48.50;;
61389;SDS011;47260;48.274;19.814;2022-12-18T08:18:23;99.97;;;41.92;;
61389;SDS011;47260;48.274;19.814;2022-12-18T08:19:55;85.05;;;38.22;;
61389;SDS011;47260;48.274;19.814;2022-12-18T08:21:27;86.05;;;37.25;;
61389;SDS011;47260;48.274;19.814;2022-12-18T08:23:00;87.53;;;37.85;;
61389;SDS011;47260;48.274;19.814;2022-12-18T08:24:33;80.47;;;35.92;;
61389;SDS011;47260;48.274;19.814;2022-12-18T08:26:05;79.03;;;36.97;;
61389;SDS011;47260;48.274;19.814;2022-12-18T08:27:37;77.85;;;34.35;;
61389;SDS011;47260;48.274;19.814;2022-12-18T08:29:09;79.80;;;35.75;;
61389;SDS011;47260;48.274;19.814;2022-12-18T08:30:41;70.10;;;30.42;;
61389;SDS011;47260;48.274;19.814;2022-12-18T08:32:13;67.28;;;31.15;;
61389;SDS011;47260;48.274;19.814;2022-12-18T08:33:44;63.47;;;29.17;;
61389;SDS011;47260;48.274;19.814;2022-12-18T08:35:17;57.05;;;26.40;;
61389;SDS011;47260;48.274;19.814;2022-12-18T08:36:49;49.25;;;21.52;;
61389;SDS011;47260;48.274;19.814;2022-12-18T08:38:20;40.70;;;17.98;;
61389;SDS011;47260;48.274;19.814;2022-12-18T08:39:54;39.97;;;17.75;;
61389;SDS011;47260;48.274;19.814;2022-12-18T08:41:26;37.13;;;17.05;;
61389;SDS011;47260;48.274;19.814;2022-12-18T08:42:58;36.30;;;16.60;;
61389;SDS011;47260;48.274;19.814;2022-12-18T08:44:43;38.30;;;17.45;;
61389;SDS011;47260;48.274;19.814;2022-12-18T08:46:14;44.88;;;19.80;;
61389;SDS011;47260;48.274;19.814;2022-12-18T08:47:46;45.17;;;20.08;;
61389;SDS011;47260;48.274;19.814;2022-12-18T08:49:17;46.20;;;20.95;;
61389;SDS011;47260;48.274;19.814;2022-12-18T08:50:53;47.20;;;21.00;;
61389;SDS011;47260;48.274;19.814;2022-12-18T08:52:25;49.60;;;22.25;;
61389;SDS011;47260;48.274;19.814;2022-12-18T08:53:58;45.65;;;21.02;;
61389;SDS011;47260;48.274;19.814;2022-12-18T08:55:31;44.83;;;22.67;;
61389;SDS011;47260;48.274;19.814;2022-12-18T08:57:03;52.45;;;22.52;;
61389;SDS011;47260;48.274;19.814;2022-12-18T08:58:34;50.20;;;22.10;;
61389;SDS011;47260;48.274;19.814;2022-12-18T09:00:06;46.88;;;21.85;;